sensor_id;sensor_type;location;lat;lon;timestamp;pressure;altitude;pressure_sealevel;temperature;humidity
29879;BME280;16752;53.364;-1.488;2023-08-20T00:02:51;100537.06;;;24.66;41.81
29879;BME280;16752;53.364;-1.488;2023-08-20T00:05:42;100435.41;;;23.92;41.63
29879;BME280;16752;53.364;-1.488;2023-08-20T00:08:26;100455.31;;;24.04;41.80
29879;BME280;16752;53.364;-1.488;2023-08-20T00:11:12;100549.63;;;24.51;41.79
29879;BME280;16752;53.364;-1.488;2023-08-20T00:13:56;100510.94;;;24.24;42.13
29879;BME280;16752;53.364;-1.488;2023-08-20T00:16:41;100558.16;;;24.40;42.32
29879;BME280;16752;53.364;-1.488;2023-08-20T00:19:25;100474.50;;;23.78;42.47
29879;BME280;16752;53.364;-1.488;2023-08-20T00:22:09;100535.53;;;24.13;42.87
29879;BME280;16752;53.364;-1.488;2023-08-20T00:24:54;100456.75;;;23.10;43.89
29879;BME280;16752;53.364;-1.488;2023-08-20T00:27:40;100519.63;;;23.82;43.22
29879;BME280;16752;53.364;-1.488;2023-08-20T00:30:24;100436.25;;;23.26;43.23
29879;BME280;16752;53.364;-1.488;2023-08-20T00:33:08;100566.88;;;24.04;43.35
29879;BME280;16752;53.364;-1.488;2023-08-20T00:35:52;100569.00;;;23.94;44.20
29879;BME280;16752;53.364;-1.488;2023-08-20T00:38:36;100502.25;;;23.63;43.51
29879;BME280;16752;53.364;-1.488;2023-08-20T00:41:20;100494.06;;;23.41;43.66
29879;BME280;16752;53.364;-1.488;2023-08-20T00:44:04;100574.34;;;23.10;45.14
29879;BME280;16752;53.364;-1.488;2023-08-20T00:46:49;100494.25;;;23.40;43.62
29879;BME280;16752;53.364;-1.488;2023-08-20T00:49:34;100516.50;;;23.55;43.83
29879;BME280;16752;53.364;-1.488;2023-08-20T00:52:19;100448.19;;;23.15;43.49
29879;BME280;16752;53.364;-1.488;2023-08-20T00:55:09;100509.44;;;23.62;43.22
29879;BME280;16752;53.364;-1.488;2023-08-20T00:57:54;100587.19;;;23.98;43.62
29879;BME280;16752;53.364;-1.488;2023-08-20T01:00:38;100433.06;;;23.07;43.53
29879;BME280;16752;53.364;-1.488;2023-08-20T01:03:23;100483.44;;;23.33;43.45
29879;BME280;16752;53.364;-1.488;2023-08-20T01:06:22;100478.19;;;23.25;43.88
29879;BME280;16752;53.364;-1.488;2023-08-20T01:12:19;100585.50;;;23.83;44.20
29879;BME280;16752;53.364;-1.488;2023-08-20T01:15:04;100481.31;;;23.29;43.65
29879;BME280;16752;53.364;-1.488;2023-08-20T01:17:48;100457.13;;;23.07;43.84
29879;BME280;16752;53.364;-1.488;2023-08-20T01:20:39;100533.94;;;23.51;43.73
29879;BME280;16752;53.364;-1.488;2023-08-20T01:26:31;100441.75;;;22.86;44.54
29879;BME280;16752;53.364;-1.488;2023-08-20T01:29:20;100568.09;;;23.64;44.18
29879;BME280;16752;53.364;-1.488;2023-08-20T01:32:05;100498.78;;;23.16;44.56
29879;BME280;16752;53.364;-1.488;2023-08-20T01:34:49;100527.41;;;23.31;44.52
29879;BME280;16752;53.364;-1.488;2023-08-20T01:37:50;100480.91;;;22.32;45.73
29879;BME280;16752;53.364;-1.488;2023-08-20T01:40:41;100528.16;;;23.25;44.73
29879;BME280;16752;53.364;-1.488;2023-08-20T01:43:25;100440.59;;;22.81;44.65
29879;BME280;16752;53.364;-1.488;2023-08-20T01:46:09;100545.34;;;23.45;44.52
29879;BME280;16752;53.364;-1.488;2023-08-20T01:48:53;100464.88;;;22.94;44.02
29879;BME280;16752;53.364;-1.488;2023-08-20T01:51:37;100434.81;;;22.46;45.27
29879;BME280;16752;53.364;-1.488;2023-08-20T01:54:22;100567.88;;;23.51;44.93
29879;BME280;16752;53.364;-1.488;2023-08-20T01:57:08;100419.56;;;22.55;45.02
29879;BME280;16752;53.364;-1.488;2023-08-20T01:59:52;100401.75;;;22.47;44.85
29879;BME280;16752;53.364;-1.488;2023-08-20T02:02:36;100443.78;;;22.76;44.39
29879;BME280;16752;53.364;-1.488;2023-08-20T02:05:20;100578.75;;;23.49;44.71
29879;BME280;16752;53.364;-1.488;2023-08-20T02:08:04;100477.78;;;22.91;44.73
29879;BME280;16752;53.364;-1.488;2023-08-20T02:10:49;100490.59;;;22.95;44.58
29879;BME280;16752;53.364;-1.488;2023-08-20T02:13:32;100460.03;;;22.67;45.21
29879;BME280;16752;53.364;-1.488;2023-08-20T02:16:17;100509.13;;;22.97;44.87
29879;BME280;16752;53.364;-1.488;2023-08-20T02:19:01;100512.22;;;22.85;45.08
29879;BME280;16752;53.364;-1.488;2023-08-20T02:21:46;100520.16;;;22.94;45.08
29879;BME280;16752;53.364;-1.488;2023-08-20T02:24:31;100502.72;;;22.83;45.12
29879;BME280;16752;53.364;-1.488;2023-08-20T02:27:15;100533.47;;;23.02;45.02
29879;BME280;16752;53.364;-1.488;2023-08-20T02:30:00;100580.41;;;23.27;44.96
29879;BME280;16752;53.364;-1.488;2023-08-20T02:32:47;100472.13;;;22.54;44.64
29879;BME280;16752;53.364;-1.488;2023-08-20T02:35:31;100611.78;;;23.33;45.16
29879;BME280;16752;53.364;-1.488;2023-08-20T02:38:15;100458.53;;;22.41;45.06
29879;BME280;16752;53.364;-1.488;2023-08-20T02:40:59;100591.81;;;23.21;45.35
29879;BME280;16752;53.364;-1.488;2023-08-20T02:43:43;100527.22;;;22.86;45.38
29879;BME280;16752;53.364;-1.488;2023-08-20T02:46:27;100538.09;;;22.85;45.24
29879;BME280;16752;53.364;-1.488;2023-08-20T02:49:11;100617.94;;;23.34;45.34
29879;BME280;16752;53.364;-1.488;2023-08-20T02:51:56;100537.63;;;22.81;45.51
29879;BME280;16752;53.364;-1.488;2023-08-20T02:54:40;100574.69;;;23.07;45.30
29879;BME280;16752;53.364;-1.488;2023-08-20T02:57:24;100538.94;;;22.85;45.24
29879;BME280;16752;53.364;-1.488;2023-08-20T03:00:10;100527.09;;;22.72;45.00
29879;BME280;16752;53.364;-1.488;2023-08-20T03:02:57;100542.44;;;22.78;46.20
29879;BME280;16752;53.364;-1.488;2023-08-20T03:05:42;100577.06;;;23.02;45.45
29879;BME280;16752;53.364;-1.488;2023-08-20T03:08:26;100621.97;;;23.07;46.32
29879;BME280;16752;53.364;-1.488;2023-08-20T03:11:11;100582.84;;;22.83;46.09
29879;BME280;16752;53.364;-1.488;2023-08-20T03:13:55;100637.09;;;23.14;46.03
29879;BME280;16752;53.364;-1.488;2023-08-20T03:16:39;100646.59;;;23.25;45.78
29879;BME280;16752;53.364;-1.488;2023-08-20T03:19:23;100581.66;;;22.85;45.92
29879;BME280;16752;53.364;-1.488;2023-08-20T03:22:07;100541.88;;;22.60;45.33
29879;BME280;16752;53.364;-1.488;2023-08-20T03:24:51;100525.75;;;22.45;46.07
29879;BME280;16752;53.364;-1.488;2023-08-20T03:27:36;100665.31;;;23.17;45.86
29879;BME280;16752;53.364;-1.488;2023-08-20T03:30:20;100571.69;;;22.71;46.10
29879;BME280;16752;53.364;-1.488;2023-08-20T03:33:04;100644.09;;;23.24;45.52
29879;BME280;16752;53.364;-1.488;2023-08-20T03:35:48;100656.28;;;23.18;45.88
29879;BME280;16752;53.364;-1.488;2023-08-20T03:38:32;100652.63;;;23.19;45.68
29879;BME280;16752;53.364;-1.488;2023-08-20T03:41:17;100601.88;;;22.80;46.13
29879;BME280;16752;53.364;-1.488;2023-08-20T03:44:00;100625.53;;;22.99;45.95
29879;BME280;16752;53.364;-1.488;2023-08-20T03:46:45;100586.69;;;22.80;46.05
29879;BME280;16752;53.364;-1.488;2023-08-20T03:49:29;100485.69;;;22.14;46.36
29879;BME280;16752;53.364;-1.488;2023-08-20T03:52:13;100667.16;;;23.16;45.81
29879;BME280;16752;53.364;-1.488;2023-08-20T03:54:57;100557.25;;;22.58;45.90
29879;BME280;16752;53.364;-1.488;2023-08-20T03:57:41;100538.63;;;22.33;46.49
29879;BME280;16752;53.364;-1.488;2023-08-20T04:00:25;100610.53;;;22.90;45.82
29879;BME280;16752;53.364;-1.488;2023-08-20T04:03:09;100574.88;;;22.67;45.80
29879;BME280;16752;53.364;-1.488;2023-08-20T04:05:52;100543.59;;;22.44;46.05
29879;BME280;16752;53.364;-1.488;2023-08-20T04:08:36;100631.91;;;22.90;45.94
29879;BME280;16752;53.364;-1.488;2023-08-20T04:11:21;100656.53;;;23.08;45.92
29879;BME280;16752;53.364;-1.488;2023-08-20T04:14:05;100582.75;;;22.60;46.12
29879;BME280;16752;53.364;-1.488;2023-08-20T04:16:49;100657.19;;;23.10;45.80
29879;BME280;16752;53.364;-1.488;2023-08-20T04:19:33;100553.63;;;22.42;46.08
29879;BME280;16752;53.364;-1.488;2023-08-20T04:22:17;100547.31;;;22.35;45.80
29879;BME280;16752;53.364;-1.488;2023-08-20T04:25:01;100659.25;;;23.00;45.87
29879;BME280;16752;53.364;-1.488;2023-08-20T04:27:46;100584.97;;;22.48;45.93
29879;BME280;16752;53.364;-1.488;2023-08-20T04:30:29;100591.78;;;22.51;46.17
29879;BME280;16752;53.364;-1.488;2023-08-20T04:33:13;100639.44;;;22.86;46.01
29879;BME280;16752;53.364;-1.488;2023-08-20T04:35:57;100553.31;;;22.37;45.69
29879;BME280;16752;53.364;-1.488;2023-08-20T04:38:41;100674.22;;;23.09;45.89
29879;BME280;16752;53.364;-1.488;2023-08-20T04:41:25;100679.78;;;23.00;46.44
29879;BME280;16752;53.364;-1.488;2023-08-20T04:44:10;100603.78;;;22.63;46.26
29879;BME280;16752;53.364;-1.488;2023-08-20T04:46:54;100623.94;;;22.82;46.24
29879;BME280;16752;53.364;-1.488;2023-08-20T04:49:39;100640.56;;;22.92;46.05
29879;BME280;16752;53.364;-1.488;2023-08-20T04:52:23;100550.28;;;22.40;46.09
29879;BME280;16752;53.364;-1.488;2023-08-20T04:55:08;100546.97;;;22.30;46.37
29879;BME280;16752;53.364;-1.488;2023-08-20T04:57:52;100589.06;;;22.67;46.11
29879;BME280;16752;53.364;-1.488;2023-08-20T05:00:36;100589.75;;;22.61;46.09
29879;BME280;16752;53.364;-1.488;2023-08-20T05:03:20;100536.38;;;21.89;47.13
29879;BME280;16752;53.364;-1.488;2023-08-20T05:06:04;100603.28;;;22.60;46.28
29879;BME280;16752;53.364;-1.488;2023-08-20T05:08:49;100547.81;;;22.31;46.40
29879;BME280;16752;53.364;-1.488;2023-08-20T05:11:33;100639.44;;;22.86;46.39
29879;BME280;16752;53.364;-1.488;2023-08-20T05:14:17;100549.28;;;22.41;46.33
29879;BME280;16752;53.364;-1.488;2023-08-20T05:17:01;100628.44;;;22.81;46.39
29879;BME280;16752;53.364;-1.488;2023-08-20T05:19:45;100684.50;;;23.21;46.17
29879;BME280;16752;53.364;-1.488;2023-08-20T05:22:29;100687.69;;;23.24;46.14
29879;BME280;16752;53.364;-1.488;2023-08-20T05:25:14;100617.25;;;22.78;46.44
29879;BME280;16752;53.364;-1.488;2023-08-20T05:27:58;100602.94;;;22.63;46.44
29879;BME280;16752;53.364;-1.488;2023-08-20T05:30:53;100635.88;;;22.94;46.06
29879;BME280;16752;53.364;-1.488;2023-08-20T05:33:38;100552.44;;;22.45;46.48
29879;BME280;16752;53.364;-1.488;2023-08-20T05:36:23;100557.09;;;22.51;46.17
29879;BME280;16752;53.364;-1.488;2023-08-20T05:39:07;100688.78;;;23.07;46.66
29879;BME280;16752;53.364;-1.488;2023-08-20T05:41:54;100641.28;;;22.86;46.69
29879;BME280;16752;53.364;-1.488;2023-08-20T05:44:39;100603.19;;;22.76;46.53
29879;BME280;16752;53.364;-1.488;2023-08-20T05:50:09;100603.13;;;22.53;46.77
29879;BME280;16752;53.364;-1.488;2023-08-20T05:53:00;100716.28;;;23.15;46.87
29879;BME280;16752;53.364;-1.488;2023-08-20T05:55:44;100717.69;;;22.95;47.08
29879;BME280;16752;53.364;-1.488;2023-08-20T05:58:29;100619.56;;;22.73;46.31
29879;BME280;16752;53.364;-1.488;2023-08-20T06:04:35;100604.53;;;22.88;45.98
29879;BME280;16752;53.364;-1.488;2023-08-20T06:07:23;100573.91;;;21.80;48.07
29879;BME280;16752;53.364;-1.488;2023-08-20T06:12:57;100650.19;;;22.62;47.22
29879;BME280;16752;53.364;-1.488;2023-08-20T06:15:44;100666.16;;;22.78;47.02
29879;BME280;16752;53.364;-1.488;2023-08-20T06:18:28;100714.91;;;22.72;47.71
29879;BME280;16752;53.364;-1.488;2023-08-20T06:21:14;100688.59;;;21.80;49.49
29879;BME280;16752;53.364;-1.488;2023-08-20T06:23:58;100735.66;;;22.21;49.19
29879;BME280;16752;53.364;-1.488;2023-08-20T06:26:43;100626.72;;;21.44;49.77
29879;BME280;16752;53.364;-1.488;2023-08-20T06:29:29;100656.97;;;22.73;47.39
29879;BME280;16752;53.364;-1.488;2023-08-20T06:35:04;100652.00;;;22.62;47.66
29879;BME280;16752;53.364;-1.488;2023-08-20T06:37:48;100654.22;;;22.97;46.50
29879;BME280;16752;53.364;-1.488;2023-08-20T06:40:33;100739.16;;;23.18;47.53
29879;BME280;16752;53.364;-1.488;2023-08-20T06:43:19;100628.53;;;23.27;45.73
29879;BME280;16752;53.364;-1.488;2023-08-20T06:46:08;100610.91;;;22.71;46.65
29879;BME280;16752;53.364;-1.488;2023-08-20T06:48:53;100708.16;;;23.94;45.65
29879;BME280;16752;53.364;-1.488;2023-08-20T06:57:19;100680.16;;;23.20;46.76
29879;BME280;16752;53.364;-1.488;2023-08-20T07:00:03;100762.00;;;22.65;48.68
29879;BME280;16752;53.364;-1.488;2023-08-20T07:02:48;100691.94;;;23.72;46.04
29879;BME280;16752;53.364;-1.488;2023-08-20T07:05:33;100650.13;;;23.48;45.55
29879;BME280;16752;53.364;-1.488;2023-08-20T07:08:19;100672.97;;;22.89;46.65
29879;BME280;16752;53.364;-1.488;2023-08-20T07:11:05;100708.44;;;23.76;45.76
29879;BME280;16752;53.364;-1.488;2023-08-20T07:14:00;100766.13;;;23.78;46.75
29879;BME280;16752;53.364;-1.488;2023-08-20T07:16:47;100643.28;;;23.92;44.73
29879;BME280;16752;53.364;-1.488;2023-08-20T07:19:32;100736.78;;;24.54;44.57
29879;BME280;16752;53.364;-1.488;2023-08-20T07:22:16;100764.16;;;24.93;44.17
29879;BME280;16752;53.364;-1.488;2023-08-20T07:25:01;100725.69;;;24.72;43.89
29879;BME280;16752;53.364;-1.488;2023-08-20T07:27:45;100776.22;;;24.60;45.20
29879;BME280;16752;53.364;-1.488;2023-08-20T07:30:31;100764.28;;;25.29;43.31
29879;BME280;16752;53.364;-1.488;2023-08-20T07:33:18;100793.03;;;24.54;45.01
29879;BME280;16752;53.364;-1.488;2023-08-20T07:36:02;100673.75;;;23.68;45.61
29879;BME280;16752;53.364;-1.488;2023-08-20T07:38:53;100649.56;;;23.99;44.71
29879;BME280;16752;53.364;-1.488;2023-08-20T07:41:37;100775.53;;;24.95;44.39
29879;BME280;16752;53.364;-1.488;2023-08-20T07:44:24;100709.91;;;25.21;42.69
29879;BME280;16752;53.364;-1.488;2023-08-20T07:47:37;100780.63;;;25.35;43.27
29879;BME280;16752;53.364;-1.488;2023-08-20T07:50:27;100713.00;;;25.03;43.21
29879;BME280;16752;53.364;-1.488;2023-08-20T07:53:13;100724.53;;;24.74;43.79
29879;BME280;16752;53.364;-1.488;2023-08-20T07:55:57;100715.66;;;25.18;43.15
29879;BME280;16752;53.364;-1.488;2023-08-20T07:58:42;100719.44;;;25.09;42.92
29879;BME280;16752;53.364;-1.488;2023-08-20T08:01:26;100799.00;;;25.82;42.72
29879;BME280;16752;53.364;-1.488;2023-08-20T08:04:10;100718.81;;;25.07;42.76
29879;BME280;16752;53.364;-1.488;2023-08-20T08:07:06;100787.88;;;25.85;42.21
29879;BME280;16752;53.364;-1.488;2023-08-20T08:09:50;100752.66;;;25.58;42.24
29879;BME280;16752;53.364;-1.488;2023-08-20T08:12:35;100739.56;;;24.60;44.01
29879;BME280;16752;53.364;-1.488;2023-08-20T08:15:20;100789.72;;;25.19;43.38
29879;BME280;16752;53.364;-1.488;2023-08-20T08:18:16;100798.13;;;26.17;42.01
29879;BME280;16752;53.364;-1.488;2023-08-20T08:21:01;100754.94;;;25.25;43.03
29879;BME280;16752;53.364;-1.488;2023-08-20T08:23:48;100718.78;;;24.77;43.56
29879;BME280;16752;53.364;-1.488;2023-08-20T08:26:33;100760.75;;;24.85;44.29
29879;BME280;16752;53.364;-1.488;2023-08-20T08:29:18;100818.28;;;25.41;43.54
29879;BME280;16752;53.364;-1.488;2023-08-20T08:32:05;100717.94;;;25.72;41.33
29879;BME280;16752;53.364;-1.488;2023-08-20T08:34:49;100814.53;;;25.57;43.45
29879;BME280;16752;53.364;-1.488;2023-08-20T08:37:40;100809.38;;;25.70;43.28
29879;BME280;16752;53.364;-1.488;2023-08-20T08:40:28;100764.97;;;25.68;42.21
29879;BME280;16752;53.364;-1.488;2023-08-20T08:43:13;100827.59;;;25.60;42.97
29879;BME280;16752;53.364;-1.488;2023-08-20T08:46:14;100757.28;;;25.65;42.50
29879;BME280;16752;53.364;-1.488;2023-08-20T08:49:00;100817.44;;;25.41;42.46
29879;BME280;16752;53.364;-1.488;2023-08-20T08:51:45;100779.44;;;25.88;41.30
29879;BME280;16752;53.364;-1.488;2023-08-20T08:54:31;100836.34;;;26.34;41.19
29879;BME280;16752;53.364;-1.488;2023-08-20T08:57:19;100752.66;;;26.37;40.54
29879;BME280;16752;53.364;-1.488;2023-08-20T09:00:08;100769.81;;;26.36;40.68
29879;BME280;16752;53.364;-1.488;2023-08-20T09:02:52;100828.91;;;26.00;40.80
29879;BME280;16752;53.364;-1.488;2023-08-20T09:05:58;100841.06;;;27.37;38.98
29879;BME280;16752;53.364;-1.488;2023-08-20T09:08:44;100758.75;;;25.02;41.73
29879;BME280;16752;53.364;-1.488;2023-08-20T09:11:40;100846.03;;;25.99;41.16
29879;BME280;16752;53.364;-1.488;2023-08-20T09:14:37;100753.63;;;25.36;41.35
29879;BME280;16752;53.364;-1.488;2023-08-20T09:17:24;100825.75;;;26.11;41.27
29879;BME280;16752;53.364;-1.488;2023-08-20T09:20:10;100751.03;;;25.79;40.23
29879;BME280;16752;53.364;-1.488;2023-08-20T09:22:54;100814.00;;;25.32;41.74
29879;BME280;16752;53.364;-1.488;2023-08-20T09:25:41;100746.53;;;25.14;41.38
29879;BME280;16752;53.364;-1.488;2023-08-20T09:28:25;100852.22;;;26.14;41.30
29879;BME280;16752;53.364;-1.488;2023-08-20T09:31:10;100812.56;;;26.16;40.72
29879;BME280;16752;53.364;-1.488;2023-08-20T15:29:22;100796.56;;;31.84;29.11
29879;BME280;16752;53.364;-1.488;2023-08-20T15:32:06;100787.41;;;32.27;28.72
29879;BME280;16752;53.364;-1.488;2023-08-20T15:34:51;100785.09;;;33.00;28.00
29879;BME280;16752;53.364;-1.488;2023-08-20T15:37:39;100754.75;;;33.84;25.30
29879;BME280;16752;53.364;-1.488;2023-08-20T15:40:24;100775.63;;;34.79;25.26
29879;BME280;16752;53.364;-1.488;2023-08-20T15:43:08;100770.22;;;35.66;23.23
29879;BME280;16752;53.364;-1.488;2023-08-20T15:45:52;100746.28;;;34.14;24.34
29879;BME280;16752;53.364;-1.488;2023-08-20T15:48:36;100784.38;;;36.22;22.34
29879;BME280;16752;53.364;-1.488;2023-08-20T15:51:20;100771.63;;;37.12;21.75
29879;BME280;16752;53.364;-1.488;2023-08-20T15:54:04;100791.41;;;36.82;21.11
29879;BME280;16752;53.364;-1.488;2023-08-20T15:56:49;100766.84;;;37.45;21.67
29879;BME280;16752;53.364;-1.488;2023-08-20T15:59:33;100737.88;;;36.02;22.06
29879;BME280;16752;53.364;-1.488;2023-08-20T16:02:22;100716.25;;;35.95;22.20
29879;BME280;16752;53.364;-1.488;2023-08-20T16:05:06;100717.19;;;36.90;20.55
29879;BME280;16752;53.364;-1.488;2023-08-20T16:07:50;100778.81;;;35.80;22.82
29879;BME280;16752;53.364;-1.488;2023-08-20T16:10:35;100786.00;;;35.20;24.58
29879;BME280;16752;53.364;-1.488;2023-08-20T16:13:19;100755.19;;;33.64;25.83
29879;BME280;16752;53.364;-1.488;2023-08-20T16:16:03;100779.91;;;32.87;27.23
29879;BME280;16752;53.364;-1.488;2023-08-20T16:18:47;100789.13;;;32.98;27.54
29879;BME280;16752;53.364;-1.488;2023-08-20T16:21:31;100714.03;;;32.21;26.55
29879;BME280;16752;53.364;-1.488;2023-08-20T16:24:19;100793.91;;;32.37;27.87
29879;BME280;16752;53.364;-1.488;2023-08-20T16:27:03;100740.03;;;31.57;28.04
29879;BME280;16752;53.364;-1.488;2023-08-20T16:29:47;100789.66;;;32.00;27.66
29879;BME280;16752;53.364;-1.488;2023-08-20T16:32:31;100779.06;;;30.95;29.13
29879;BME280;16752;53.364;-1.488;2023-08-20T16:35:15;100709.41;;;31.09;29.05
29879;BME280;16752;53.364;-1.488;2023-08-20T16:38:00;100771.59;;;31.34;29.62
29879;BME280;16752;53.364;-1.488;2023-08-20T16:40:46;100769.69;;;31.16;29.67
29879;BME280;16752;53.364;-1.488;2023-08-20T16:43:31;100737.19;;;31.52;29.40
29879;BME280;16752;53.364;-1.488;2023-08-20T16:46:16;100763.13;;;30.68;29.70
29879;BME280;16752;53.364;-1.488;2023-08-20T16:49:00;100779.63;;;31.40;29.30
29879;BME280;16752;53.364;-1.488;2023-08-20T16:52:04;100701.59;;;30.64;29.58
29879;BME280;16752;53.364;-1.488;2023-08-20T16:54:49;100743.03;;;30.01;30.01
29879;BME280;16752;53.364;-1.488;2023-08-20T16:57:33;100784.81;;;30.62;30.06
29879;BME280;16752;53.364;-1.488;2023-08-20T17:00:17;100750.19;;;30.21;30.50
29879;BME280;16752;53.364;-1.488;2023-08-20T17:03:02;100745.47;;;30.41;30.68
29879;BME280;16752;53.364;-1.488;2023-08-20T17:05:46;100790.84;;;30.64;30.57
29879;BME280;16752;53.364;-1.488;2023-08-20T17:08:31;100735.41;;;29.92;30.62
29879;BME280;16752;53.364;-1.488;2023-08-20T17:11:15;100774.53;;;30.46;30.28
29879;BME280;16752;53.364;-1.488;2023-08-20T17:13:59;100742.13;;;29.38;30.67
29879;BME280;16752;53.364;-1.488;2023-08-20T17:16:43;100787.00;;;29.84;30.57
29879;BME280;16752;53.364;-1.488;2023-08-20T17:19:27;100701.81;;;29.43;30.02
29879;BME280;16752;53.364;-1.488;2023-08-20T17:22:11;100772.97;;;30.00;30.53
29879;BME280;16752;53.364;-1.488;2023-08-20T17:24:56;100797.22;;;30.45;30.26
29879;BME280;16752;53.364;-1.488;2023-08-20T17:27:40;100752.88;;;29.89;30.94
29879;BME280;16752;53.364;-1.488;2023-08-20T17:30:24;100799.06;;;29.81;31.51
29879;BME280;16752;53.364;-1.488;2023-08-20T17:33:08;100781.28;;;30.05;31.37
29879;BME280;16752;53.364;-1.488;2023-08-20T17:35:53;100798.53;;;30.04;32.14
29879;BME280;16752;53.364;-1.488;2023-08-20T17:38:39;100778.44;;;29.42;31.87
29879;BME280;16752;53.364;-1.488;2023-08-20T17:41:27;100771.78;;;29.44;31.62
29879;BME280;16752;53.364;-1.488;2023-08-20T17:49:46;100800.94;;;29.80;31.31
29879;BME280;16752;53.364;-1.488;2023-08-20T17:52:59;100677.63;;;29.30;33.46
29879;BME280;16752;53.364;-1.488;2023-08-20T17:58:42;100691.47;;;28.82;34.07
29879;BME280;16752;53.364;-1.488;2023-08-20T18:01:27;100793.28;;;29.19;32.62
29879;BME280;16752;53.364;-1.488;2023-08-20T18:04:17;100811.00;;;29.60;33.60
29879;BME280;16752;53.364;-1.488;2023-08-20T18:07:02;100667.69;;;28.66;34.37
29879;BME280;16752;53.364;-1.488;2023-08-20T18:09:49;100733.78;;;28.81;33.57
29879;BME280;16752;53.364;-1.488;2023-08-20T18:12:33;100802.25;;;28.34;32.70
29879;BME280;16752;53.364;-1.488;2023-08-20T18:15:17;100762.03;;;28.66;32.62
29879;BME280;16752;53.364;-1.488;2023-08-20T18:18:01;100798.88;;;29.18;32.79
29879;BME280;16752;53.364;-1.488;2023-08-20T18:20:49;100696.31;;;28.53;33.96
29879;BME280;16752;53.364;-1.488;2023-08-20T18:23:34;100767.41;;;28.79;35.06
29879;BME280;16752;53.364;-1.488;2023-08-20T18:26:19;100833.97;;;29.18;32.32
29879;BME280;16752;53.364;-1.488;2023-08-20T18:29:06;100762.44;;;28.76;34.19
29879;BME280;16752;53.364;-1.488;2023-08-20T18:31:52;100701.13;;;28.25;34.14
29879;BME280;16752;53.364;-1.488;2023-08-20T18:34:38;100733.22;;;28.33;35.13
29879;BME280;16752;53.364;-1.488;2023-08-20T18:37:29;100763.31;;;28.43;35.59
29879;BME280;16752;53.364;-1.488;2023-08-20T18:40:16;100684.09;;;28.05;35.62
29879;BME280;16752;53.364;-1.488;2023-08-20T18:43:20;100711.44;;;28.15;36.22
29879;BME280;16752;53.364;-1.488;2023-08-20T18:46:12;100808.72;;;28.66;36.52
29879;BME280;16752;53.364;-1.488;2023-08-20T18:48:58;100801.03;;;28.56;36.62
29879;BME280;16752;53.364;-1.488;2023-08-20T18:52:03;100714.13;;;27.95;36.95
29879;BME280;16752;53.364;-1.488;2023-08-20T18:54:58;100812.22;;;28.47;37.02
29879;BME280;16752;53.364;-1.488;2023-08-20T18:57:47;100810.97;;;28.36;37.59
29879;BME280;16752;53.364;-1.488;2023-08-20T19:00:39;100862.19;;;28.49;37.55
29879;BME280;16752;53.364;-1.488;2023-08-20T19:03:26;100705.72;;;27.44;37.60
29879;BME280;16752;53.364;-1.488;2023-08-20T19:06:12;100770.00;;;27.66;37.74
29879;BME280;16752;53.364;-1.488;2023-08-20T19:08:59;100796.72;;;27.68;37.68
29879;BME280;16752;53.364;-1.488;2023-08-20T19:11:45;100704.06;;;26.95;38.14
29879;BME280;16752;53.364;-1.488;2023-08-20T19:14:31;100720.81;;;26.97;38.58
29879;BME280;16752;53.364;-1.488;2023-08-20T19:17:21;100829.31;;;27.52;38.42
29879;BME280;16752;53.364;-1.488;2023-08-20T19:20:06;100880.56;;;27.65;38.50
29879;BME280;16752;53.364;-1.488;2023-08-20T19:22:52;100838.31;;;27.31;39.02
29879;BME280;16752;53.364;-1.488;2023-08-20T19:25:37;100875.88;;;27.46;39.09
29879;BME280;16752;53.364;-1.488;2023-08-20T19:28:21;100841.69;;;27.05;39.30
29879;BME280;16752;53.364;-1.488;2023-08-20T19:31:05;100833.88;;;26.89;39.55
29879;BME280;16752;53.364;-1.488;2023-08-20T19:33:49;100782.88;;;26.46;39.52
29879;BME280;16752;53.364;-1.488;2023-08-20T19:36:33;100865.38;;;26.95;39.90
29879;BME280;16752;53.364;-1.488;2023-08-20T19:39:17;100879.84;;;26.94;39.56
29879;BME280;16752;53.364;-1.488;2023-08-20T19:42:01;100824.53;;;26.57;39.92
29879;BME280;16752;53.364;-1.488;2023-08-20T19:44:46;100813.13;;;26.48;39.81
29879;BME280;16752;53.364;-1.488;2023-08-20T19:47:30;100809.91;;;26.38;40.33
29879;BME280;16752;53.364;-1.488;2023-08-20T19:50:14;100779.00;;;26.06;40.36
29879;BME280;16752;53.364;-1.488;2023-08-20T19:52:58;100912.63;;;26.83;40.54
29879;BME280;16752;53.364;-1.488;2023-08-20T19:55:42;100930.56;;;26.75;40.31
29879;BME280;16752;53.364;-1.488;2023-08-20T19:58:26;100872.09;;;26.35;40.53
29879;BME280;16752;53.364;-1.488;2023-08-20T20:01:10;100779.03;;;25.70;40.65
29879;BME280;16752;53.364;-1.488;2023-08-20T20:03:55;100777.06;;;25.64;40.37
29879;BME280;16752;53.364;-1.488;2023-08-20T20:06:40;100777.56;;;25.52;40.66
29879;BME280;16752;53.364;-1.488;2023-08-20T20:09:24;100830.72;;;25.78;40.82
29879;BME280;16752;53.364;-1.488;2023-08-20T20:12:09;100777.84;;;25.43;40.63
29879;BME280;16752;53.364;-1.488;2023-08-20T20:14:53;100895.00;;;26.01;41.11
29879;BME280;16752;53.364;-1.488;2023-08-20T20:17:37;100859.59;;;25.76;41.09
29879;BME280;16752;53.364;-1.488;2023-08-20T20:20:21;100870.44;;;25.83;40.98
29879;BME280;16752;53.364;-1.488;2023-08-20T20:23:06;100836.56;;;25.52;40.84
29879;BME280;16752;53.364;-1.488;2023-08-20T20:25:50;100829.47;;;25.45;41.20
29879;BME280;16752;53.364;-1.488;2023-08-20T20:28:34;100904.03;;;25.79;41.53
29879;BME280;16752;53.364;-1.488;2023-08-20T20:31:22;100868.13;;;25.65;41.39
29879;BME280;16752;53.364;-1.488;2023-08-20T20:34:06;100828.00;;;25.42;41.49
29879;BME280;16752;53.364;-1.488;2023-08-20T20:36:50;100851.38;;;25.48;41.42
29879;BME280;16752;53.364;-1.488;2023-08-20T20:39:34;100861.38;;;25.54;41.25
29879;BME280;16752;53.364;-1.488;2023-08-20T20:42:18;100877.56;;;25.61;41.11
29879;BME280;16752;53.364;-1.488;2023-08-20T20:45:03;100844.16;;;25.34;40.82